Главная страница
METAR-TAF:

METAR-TAF

Аэропорты :

Костанай, Казахстан

широта: 53-12-23N, долгота: 063-33-03E, высота над уровнем моря: 182 м

Текущие метеонаблюдения

Эта сводка был подготовлена 21 минут назад, в 09:00 UTC
Ветер 8 Узел от южный
Температура -17°C
Влажность 77%
Давление 1028 hPa
Видимость 10 км и более
Рассеянная облачность на высоте 700 фута

METAR: UAUU 170900Z 19004MPS 9999 BKN007 M17/M20 Q1028 R15/810058 TEMPO 2000 BR BKN003 RMK QFE755/1006

Время: 15:21 (09:21 UTC)

Прогноз

Эта сводка был подготовлена 1 час и 21 минут назад, в 08:00 UTC
Прогноз действительный с 17-го 09 UTC до 17-го 18 UTC
Ветер 10 Узел от южный
Видимость: 6000 м
Отдельные облака на высоте 600 фута
Рассеянная облачность на высоте 1000 фута
временами
С 17-го 09 UTC до 17-го 16 UTC
Видимость: 2000 м
Рассеянная облачность на высоте 300 фута
дымка
временами
С 17-го 17 UTC до 17-го 18 UTC
Видимость: 2000 м
дымка

TAF: UAUU 170800Z 1709/1718 19005MPS 6000 SCT006 BKN010 TEMPO 1709/1716 2000 BR BKN003 TEMPO 1717/1718 2000 BR

Метеонаблюдения и прогнозы для более 4000 аэропортов (сводки METAR и TAF).

Имеющиеся станции представлены на карте желтыми и красными точками.

Чтобы увидеть название станции, наведите на нее мышь.

Затем щелкните, чтобы увидеть метеонаблюдения и метеопрогнозы.

Управление картой: чтобы увеличить масштаб, щелкните зеленые кнопки с черным крестиком; чтобы уменьшить масштаб, щелкните зеленую кнопку с тире; для просмотра соседних карт щелкайте зеленые стрелки.


METAR-TAF: